Ana Sayfa
METAR-TAF:

METAR-TAF

Havaalanları :

Stigler, Oklahoma, Amerika Birleşik Devletleri

Enlem: 35-17-17N, Boylam: 095-05-38W, yükseklik: 183 m

Güncel hava durumu gözlemi

Rapor saat 02:15 UTC de 35 dakika önce yapıldı.
Sakin rüzgar
Sıcaklık 26°C
Nem 70%
Basınç 1014 hPa
Görüş mesafesi: 16.1 km
1800 ft yükseklikte parçalı çok bulutlu

METAR: KGZL 070215Z AUTO 00000KT 10SM BKN018 26/20 A2993 RMK AO2

Saat: 21:50 (02:50 UTC)


TAF: eksik

4.000'den fazla havaalanı için hava durumu gözlemleri ve tahminleri (METAR ve TAF raporları).

Kullanılabilir istasyonlar harita üzerinde sarı ve kırmızı noktalarla gösterilir.

İstasyonun adını görmek için fareyi noktanın üzerinde gezdirin.

Sonrasında hava gözlem ve tahminlerini görmek için tıklayın.

Haritayı değiştirmek için: yaklaştırmak için siyah artı işaretli yeşil düğmeye ve uzaklaştırmak için de eksi işaretli düğmeye hızla tıklayın; bitişik haritalar için yeşil okları kullanın.


METAR-TAF: